KBIF/BIF METAR and TAF weather

Enter ICAO airport designator
Station Type Date Time Source
KBIF METAR 2021/07/29 18:58 UTC NOAA

KBIF 291858Z AUTO 15005G17KT 10SM SCT065 30/13 A3014 RMK AO2 SLP137 T03030129 $


Station Type Date Time Source
KBIF Decoded METAR 2021/07/29 18:58 UTC NOAA

Biggs Army Air Field / Ft. Bliss, TX, United States (KBIF) 31-51N 106-23W
Jul 29, 2021 - 02:58 PM EDT / 2021.07.29 1858 UTC
Wind: from the SSE (150 degrees) at 6 MPH (5 KT) gusting to 20 MPH (17 KT):0
Visibility: 10 mile(s):0
Sky conditions: partly cloudy
Temperature: 86.5 F (30.3 C)
Dew Point: 55.2 F (12.9 C)
Relative Humidity: 34%
Pressure (altimeter): 30.14 in. Hg (1020 hPa)
ob: KBIF 291858Z AUTO 15005G17KT 10SM SCT065 30/13 A3014 RMK AO2 SLP137 T03030129
cycle: 19

Station Type Date Time Source
KBIF TAF 2021/07/29 14:03 UTC NOAA

TAF KBIF 291400Z 2914/3020 11009KT 9999 FEW110 QNH3014INS
BECMG 2918/2919 12012G18KT 9000 -SHRA VCTS BKN110CB QNH3005INS
TEMPO 2922/3002 VRB20G30KT -TSRA BKN090CB
BECMG 3005/3006 VRB06KT 9999 NSW SCT060 SCT090 QNH3014INS
BECMG 3016/3017 12009KT 9000 -SHRA SCT090 QNH3013INS TX32/2920Z TN20/3012Z

Example: see airport list